createdAt,value
2018-11-14T00:00:55.350Z,100775.58
2018-11-14T00:03:24.841Z,100785.90
2018-11-14T00:05:55.382Z,100788.07
2018-11-14T00:08:26.008Z,100792.22
2018-11-14T00:10:55.648Z,100789.87
2018-11-14T00:13:26.233Z,100792.36
2018-11-14T00:15:56.428Z,100794.89
2018-11-14T00:18:26.384Z,100798.57
2018-11-14T00:20:55.979Z,100796.41
2018-11-14T00:23:26.337Z,100798.20
2018-11-14T00:25:56.100Z,100802.72
2018-11-14T00:28:26.130Z,100802.91
2018-11-14T00:30:55.535Z,100810.09
2018-11-14T00:33:24.996Z,100814.42
2018-11-14T00:35:54.594Z,100813.31
2018-11-14T00:38:23.850Z,100819.88
2018-11-14T00:40:53.444Z,100827.89
2018-11-14T00:43:36.716Z,100830.06
2018-11-14T00:46:05.629Z,100828.00
2018-11-14T00:48:34.455Z,100833.35
2018-11-14T00:51:04.113Z,100837.75
2018-11-14T00:53:33.840Z,100837.98
2018-11-14T00:56:02.625Z,100849.85
2018-11-14T00:58:32.122Z,100844.87
2018-11-14T01:01:02.285Z,100845.59
2018-11-14T01:03:31.796Z,100842.45
2018-11-14T01:06:00.612Z,100854.33
2018-11-14T01:08:30.892Z,100849.52
2018-11-14T01:11:00.137Z,100852.58
2018-11-14T01:13:29.463Z,100853.95
2018-11-14T01:15:58.905Z,100857.95
2018-11-14T01:18:27.735Z,100862.50
2018-11-14T01:20:56.556Z,100864.08
2018-11-14T01:23:27.590Z,100872.11
2018-11-14T01:25:56.432Z,100869.47
2018-11-14T01:28:27.448Z,100867.70
2018-11-14T01:30:56.220Z,100877.24
2018-11-14T01:33:26.110Z,100876.44
2018-11-14T01:35:55.572Z,100876.32
2018-11-14T01:38:25.030Z,100877.83
2018-11-14T01:40:54.678Z,100875.34
2018-11-14T01:43:24.512Z,100880.00
2018-11-14T01:45:53.934Z,100883.84
2018-11-14T01:48:23.184Z,100884.34
2018-11-14T01:50:54.593Z,100889.84
2018-11-14T01:53:24.687Z,100889.13
2018-11-14T01:55:55.229Z,100889.45
2018-11-14T01:58:24.329Z,100894.95
2018-11-14T02:00:54.306Z,100897.11
2018-11-14T02:03:24.455Z,100890.92
2018-11-14T02:05:53.993Z,100895.09
2018-11-14T02:08:24.270Z,100897.11
2018-11-14T02:10:54.710Z,100893.79
2018-11-14T02:13:24.473Z,100896.96
2018-11-14T02:15:54.906Z,100899.45
2018-11-14T02:18:25.521Z,100899.45
2018-11-14T02:20:54.855Z,100904.80
2018-11-14T02:23:24.293Z,100909.62
2018-11-14T02:25:54.185Z,100908.80
2018-11-14T02:28:23.896Z,100914.13
2018-11-14T02:30:53.422Z,100914.97
2018-11-14T02:33:23.573Z,100922.64
2018-11-14T02:35:52.742Z,100923.48
2018-11-14T02:38:22.377Z,100928.99
2018-11-14T02:40:51.499Z,100928.66
2018-11-14T02:43:20.302Z,100932.05
2018-11-14T02:45:49.115Z,100937.23
2018-11-14T02:48:17.952Z,100943.39
2018-11-14T02:50:47.798Z,100944.05
2018-11-14T02:53:16.653Z,100946.52
2018-11-14T02:55:47.132Z,100949.16
2018-11-14T02:58:15.893Z,100944.48
2018-11-14T03:00:45.506Z,100955.98
2018-11-14T03:03:15.025Z,100951.48
2018-11-14T03:05:44.610Z,100955.97
2018-11-14T03:08:13.904Z,100962.14
2018-11-14T03:10:43.366Z,100964.30
2018-11-14T03:13:13.208Z,100974.60
2018-11-14T03:15:42.544Z,100974.48
2018-11-14T03:18:11.314Z,100979.99
2018-11-14T03:20:40.651Z,100980.84
2018-11-14T03:23:09.418Z,100982.36
2018-11-14T03:25:38.797Z,100986.37
2018-11-14T03:28:07.631Z,100987.09
2018-11-14T03:30:36.458Z,100983.43
2018-11-14T03:33:05.570Z,100990.27
2018-11-14T03:35:39.635Z,100991.44
2018-11-14T03:38:08.422Z,100991.27
2018-11-14T03:40:38.461Z,100992.92
2018-11-14T03:43:07.728Z,100989.42
2018-11-14T03:45:36.570Z,100997.77
2018-11-14T03:48:05.433Z,100997.77
2018-11-14T03:50:34.922Z,101005.06
2018-11-14T03:53:04.575Z,101012.39
2018-11-14T03:55:33.385Z,101014.06
2018-11-14T03:58:02.215Z,101016.55
2018-11-14T04:00:31.509Z,101015.39
2018-11-14T04:03:00.812Z,101022.57
2018-11-14T04:05:30.322Z,101021.73
2018-11-14T04:07:59.663Z,101023.91
2018-11-14T04:10:29.636Z,101021.06
2018-11-14T04:12:59.473Z,101028.73
2018-11-14T04:15:28.945Z,101026.24
2018-11-14T04:17:57.737Z,101022.74
2018-11-14T04:20:27.006Z,101027.58
2018-11-14T04:22:55.847Z,101030.75
2018-11-14T04:25:25.366Z,101031.91
2018-11-14T04:27:54.584Z,101028.73
2018-11-14T04:30:23.985Z,101028.91
2018-11-14T04:32:53.074Z,101030.58
2018-11-14T04:35:22.644Z,101030.58
2018-11-14T04:37:53.659Z,101039.23
2018-11-14T04:40:23.690Z,101037.22
2018-11-14T04:42:52.986Z,101039.05
2018-11-14T04:45:23.845Z,101044.19
2018-11-14T04:47:53.394Z,101047.89
2018-11-14T04:50:24.619Z,101047.39
2018-11-14T04:52:55.077Z,101044.73
2018-11-14T04:55:25.551Z,101054.76
2018-11-14T04:57:55.379Z,101065.61
2018-11-14T05:00:27.015Z,101064.95
2018-11-14T05:02:56.602Z,101062.95
2018-11-14T05:05:26.235Z,101069.50
2018-11-14T05:07:56.607Z,101073.50
2018-11-14T05:10:27.315Z,101077.67
2018-11-14T05:12:56.225Z,101071.16
2018-11-14T05:15:26.954Z,101075.30
2018-11-14T05:17:57.028Z,101079.79
2018-11-14T05:20:26.877Z,101081.80
2018-11-14T05:22:55.671Z,101084.97
2018-11-14T05:25:24.827Z,101089.47
2018-11-14T05:27:54.854Z,101075.95
2018-11-14T05:30:24.478Z,101089.12
2018-11-14T05:32:54.296Z,101087.63
2018-11-14T05:35:23.926Z,101090.13
2018-11-14T05:37:53.633Z,101087.61
2018-11-14T05:40:23.785Z,101091.23
2018-11-14T05:42:53.972Z,101090.56
2018-11-14T05:45:24.598Z,101103.25
2018-11-14T05:47:54.493Z,101100.24
2018-11-14T05:50:25.126Z,101102.41
2018-11-14T05:52:56.053Z,101109.26
2018-11-14T05:55:25.666Z,101109.93
2018-11-14T05:57:55.486Z,101106.30
2018-11-14T06:00:29.856Z,101108.81
2018-11-14T06:03:01.240Z,101120.16
2018-11-14T06:05:30.737Z,101124.33
2018-11-14T06:07:59.581Z,101132.00
2018-11-14T06:13:05.993Z,101141.34
2018-11-14T06:15:35.616Z,101136.84
2018-11-14T06:18:10.142Z,101138.17
2018-11-14T06:20:39.769Z,101149.02
2018-11-14T06:23:08.858Z,101149.30
2018-11-14T06:25:38.662Z,101153.64
2018-11-14T06:28:08.754Z,101161.32
2018-11-14T06:30:38.076Z,101159.81
2018-11-14T06:33:12.580Z,101164.32
2018-11-14T06:35:41.375Z,101168.98
2018-11-14T06:38:10.182Z,101163.14
2018-11-14T06:40:39.080Z,101177.67
2018-11-14T06:43:08.251Z,101171.50
2018-11-14T06:45:38.270Z,101186.18
2018-11-14T06:48:08.659Z,101185.19
2018-11-14T06:50:38.244Z,101185.52
2018-11-14T06:53:08.072Z,101187.55
2018-11-14T06:55:36.855Z,101188.19
2018-11-14T06:58:05.718Z,101180.68
2018-11-14T07:00:35.899Z,101193.36
2018-11-14T07:03:12.259Z,101188.35
2018-11-14T07:05:42.078Z,101194.19
2018-11-14T07:08:11.681Z,101189.67
2018-11-14T07:10:41.125Z,101203.86
2018-11-14T07:13:13.942Z,101197.84
2018-11-14T07:15:43.861Z,101204.02
2018-11-14T07:18:13.088Z,101210.70
2018-11-14T07:20:43.962Z,101205.53
2018-11-14T07:23:12.750Z,101206.37
2018-11-14T07:25:41.595Z,101203.70
2018-11-14T07:28:17.789Z,101207.21
2018-11-14T07:30:46.781Z,101213.89
2018-11-14T07:33:15.718Z,101217.22
2018-11-14T07:35:44.945Z,101213.72
2018-11-14T07:38:48.343Z,101226.94
2018-11-14T07:41:30.350Z,101232.41
2018-11-14T07:43:59.853Z,101230.58
2018-11-14T07:46:29.785Z,101241.62
2018-11-14T07:48:58.692Z,101247.09
2018-11-14T07:51:28.596Z,101251.59
2018-11-14T07:53:58.585Z,101257.94
2018-11-14T07:56:27.538Z,101261.44
2018-11-14T07:58:56.693Z,101257.59
2018-11-14T08:01:26.228Z,101263.78
2018-11-14T08:03:55.913Z,101266.45
2018-11-14T08:09:01.912Z,101276.75
2018-11-14T08:11:30.758Z,101275.25
2018-11-14T08:14:00.694Z,101277.92
2018-11-14T08:16:30.097Z,101281.75
2018-11-14T08:18:59.626Z,101288.89
2018-11-14T08:21:32.330Z,101288.23
2018-11-14T08:24:01.118Z,101300.91
2018-11-14T08:26:29.911Z,101297.73
2018-11-14T08:28:59.551Z,101302.91
2018-11-14T08:31:28.440Z,101302.75
2018-11-14T08:33:57.426Z,101307.55
2018-11-14T08:36:26.246Z,101308.88
2018-11-14T08:38:55.425Z,101311.05
2018-11-14T08:41:25.995Z,101316.67
2018-11-14T08:43:55.912Z,101318.17
2018-11-14T08:46:25.676Z,101329.86
2018-11-14T08:48:55.226Z,101325.34
2018-11-14T08:51:25.747Z,101337.50
2018-11-14T08:53:56.394Z,101339.88
2018-11-14T08:56:25.473Z,101343.88
2018-11-14T08:58:55.299Z,101350.86
2018-11-14T09:01:26.333Z,101352.74
2018-11-14T09:03:57.394Z,101352.91
2018-11-14T09:06:27.078Z,101353.75
2018-11-14T09:08:56.549Z,101355.91
2018-11-14T09:11:25.784Z,101358.59
2018-11-14T09:13:55.351Z,101357.75
2018-11-14T09:16:25.633Z,101361.76
2018-11-14T09:18:55.401Z,101366.61
2018-11-14T09:21:24.883Z,101368.28
2018-11-14T09:23:54.798Z,101374.30
2018-11-14T09:26:24.254Z,101375.30
2018-11-14T09:28:53.830Z,101371.74
2018-11-14T09:31:23.111Z,101373.24
2018-11-14T09:33:52.934Z,101380.77
2018-11-14T09:36:21.880Z,101373.58
2018-11-14T09:38:52.206Z,101373.63
2018-11-14T09:41:21.101Z,101375.45
2018-11-14T09:43:50.015Z,101377.62
2018-11-14T09:46:18.825Z,101385.14
2018-11-14T09:48:47.651Z,101376.46
2018-11-14T09:51:17.078Z,101386.16
2018-11-14T09:53:46.300Z,101395.34
2018-11-14T09:56:15.141Z,101396.17
2018-11-14T09:58:44.008Z,101399.35
2018-11-14T10:01:13.528Z,101395.71
2018-11-14T10:03:43.120Z,101400.05
2018-11-14T10:06:12.525Z,101402.56
2018-11-14T10:08:41.326Z,101401.73
2018-11-14T10:11:10.853Z,101408.07
2018-11-14T10:13:39.683Z,101401.89
2018-11-14T10:16:09.432Z,101405.73
2018-11-14T10:18:38.219Z,101407.53
2018-11-14T10:21:08.508Z,101403.19
2018-11-14T10:23:37.286Z,101402.69
2018-11-14T10:26:06.117Z,101398.34
2018-11-14T10:28:34.972Z,101407.19
2018-11-14T10:31:03.879Z,101412.83
2018-11-14T10:33:32.846Z,101418.00
2018-11-14T10:36:03.021Z,101423.14
2018-11-14T10:38:31.868Z,101416.63
2018-11-14T10:41:00.705Z,101421.97
2018-11-14T10:43:29.613Z,101422.64
2018-11-14T10:45:58.488Z,101428.99
2018-11-14T10:48:27.463Z,101427.98
2018-11-14T10:50:57.480Z,101429.78
2018-11-14T10:53:26.966Z,101435.47
2018-11-14T10:55:56.809Z,101439.64
2018-11-14T10:58:26.256Z,101435.30
2018-11-14T11:01:03.950Z,101430.48
2018-11-14T11:03:40.460Z,101433.30
2018-11-14T11:06:15.296Z,101440.27
2018-11-14T11:08:49.422Z,101441.39
2018-11-14T11:13:26.459Z,101438.36
2018-11-14T11:16:01.235Z,101426.09
2018-11-14T11:18:31.709Z,101435.78
2018-11-14T11:21:01.293Z,101437.07
2018-11-14T11:23:30.235Z,101442.08
2018-11-14T11:25:59.724Z,101450.00
2018-11-14T11:28:28.670Z,101441.64
2018-11-14T11:30:57.700Z,101450.34
2018-11-14T11:33:27.165Z,101454.37
2018-11-14T11:35:58.226Z,101458.04
2018-11-14T11:38:27.497Z,101455.51
2018-11-14T11:40:56.600Z,101457.98
2018-11-14T11:43:25.705Z,101467.34
2018-11-14T11:45:55.734Z,101465.14
2018-11-14T11:48:26.698Z,101466.48
2018-11-14T11:50:56.350Z,101477.19
2018-11-14T11:53:26.303Z,101473.19
2018-11-14T11:55:56.124Z,101478.72
2018-11-14T11:58:25.856Z,101477.70
2018-11-14T12:01:05.345Z,101483.56
2018-11-14T12:03:35.243Z,101479.59
2018-11-14T12:06:06.027Z,101490.93
2018-11-14T12:08:35.043Z,101487.80
2018-11-14T12:11:05.162Z,101491.44
2018-11-14T12:13:34.208Z,101488.76
2018-11-14T12:16:04.421Z,101490.59
2018-11-14T12:18:33.560Z,101501.95
2018-11-14T12:21:03.531Z,101507.14
2018-11-14T12:23:32.457Z,101501.30
2018-11-14T12:26:01.758Z,101507.31
2018-11-14T12:28:30.861Z,101508.32
2018-11-14T12:31:00.532Z,101508.99
2018-11-14T12:33:29.864Z,101509.66
2018-11-14T12:38:44.996Z,101513.16
2018-11-14T12:41:14.520Z,101510.32
2018-11-14T12:43:43.463Z,101503.47
2018-11-14T12:46:12.620Z,101505.98
2018-11-14T12:48:41.802Z,101505.48
2018-11-14T12:51:14.462Z,101499.95
2018-11-14T12:53:43.900Z,101506.16
2018-11-14T12:56:27.378Z,101499.67
2018-11-14T12:58:56.213Z,101503.03
2018-11-14T13:01:26.661Z,101506.39
2018-11-14T13:03:55.954Z,101501.75
2018-11-14T13:06:27.080Z,101501.42
2018-11-14T13:08:56.875Z,101495.74
2018-11-14T13:11:29.181Z,101498.08
2018-11-14T13:13:58.134Z,101505.98
2018-11-14T13:16:28.401Z,101512.50
2018-11-14T13:18:58.200Z,101499.46
2018-11-14T13:21:27.503Z,101504.31
2018-11-14T13:23:56.507Z,101509.50
2018-11-14T13:26:27.094Z,101511.17
2018-11-14T13:28:56.680Z,101516.85
2018-11-14T13:31:25.673Z,101513.34
2018-11-14T13:33:55.219Z,101511.00
2018-11-14T13:36:25.865Z,101514.52
2018-11-14T13:38:55.618Z,101522.20
2018-11-14T13:41:25.458Z,101523.88
2018-11-14T13:43:55.024Z,101518.02
2018-11-14T13:46:24.238Z,101524.55
2018-11-14T13:48:54.371Z,101530.73
2018-11-14T13:51:25.086Z,101529.26
2018-11-14T13:53:55.248Z,101527.42
2018-11-14T13:56:25.219Z,101531.60
2018-11-14T13:58:54.768Z,101531.60
2018-11-14T14:01:25.246Z,101531.91
2018-11-14T14:03:55.767Z,101535.25
2018-11-14T14:06:26.011Z,101537.12
2018-11-14T14:08:56.472Z,101536.61
2018-11-14T14:11:25.316Z,101548.31
2018-11-14T14:14:00.346Z,101541.63
2018-11-14T14:16:31.080Z,101545.97
2018-11-14T14:19:00.472Z,101545.16
2018-11-14T14:21:29.227Z,101543.99
2018-11-14T14:23:58.651Z,101557.36
2018-11-14T14:26:28.226Z,101555.69
2018-11-14T14:28:57.152Z,101554.02
2018-11-14T14:31:25.923Z,101559.69
2018-11-14T14:33:55.701Z,101548.83
2018-11-14T14:36:25.277Z,101560.69
2018-11-14T14:38:55.366Z,101563.70
2018-11-14T14:41:24.819Z,101573.73
2018-11-14T14:43:54.320Z,101565.55
2018-11-14T14:46:23.605Z,101569.22
2018-11-14T14:48:53.825Z,101571.89
2018-11-14T14:51:24.083Z,101576.23
2018-11-14T14:53:54.384Z,101571.39
2018-11-14T14:56:23.836Z,101580.25
2018-11-14T14:58:52.916Z,101584.92
2018-11-14T15:01:23.131Z,101587.42
2018-11-14T15:03:54.201Z,101599.45
2018-11-14T15:06:24.566Z,101597.97
2018-11-14T15:08:54.971Z,101598.97
2018-11-14T15:11:24.445Z,101597.80
2018-11-14T15:13:54.253Z,101594.78
2018-11-14T15:16:24.018Z,101596.96
2018-11-14T15:19:06.871Z,101603.13
2018-11-14T15:21:36.294Z,101606.30
2018-11-14T15:24:05.895Z,101605.30
2018-11-14T15:26:34.697Z,101614.17
2018-11-14T15:29:03.748Z,101610.81
2018-11-14T15:31:32.512Z,101611.15
2018-11-14T15:34:01.343Z,101604.28
2018-11-14T15:36:30.274Z,101607.96
2018-11-14T15:38:59.654Z,101608.11
2018-11-14T15:41:28.461Z,101609.42
2018-11-14T15:43:58.523Z,101609.94
2018-11-14T15:46:27.403Z,101612.25
2018-11-14T15:48:56.702Z,101618.75
2018-11-14T15:51:25.551Z,101621.09
2018-11-14T15:53:55.817Z,101622.06
2018-11-14T15:56:25.083Z,101627.72
2018-11-14T15:58:54.670Z,101625.50
2018-11-14T16:01:25.067Z,101623.83
2018-11-14T16:03:55.395Z,101629.48
2018-11-14T16:06:26.156Z,101628.62
2018-11-14T16:08:56.885Z,101627.76
2018-11-14T16:11:25.730Z,101627.94
2018-11-14T16:14:00.002Z,101631.76
2018-11-14T16:16:30.551Z,101631.11
2018-11-14T16:19:00.361Z,101632.12
2018-11-14T16:21:29.774Z,101633.30
2018-11-14T16:23:59.580Z,101630.64
2018-11-14T16:26:28.388Z,101630.64
2018-11-14T16:28:57.323Z,101634.14
2018-11-14T16:31:26.254Z,101630.14
2018-11-14T16:33:55.269Z,101628.28
2018-11-14T16:36:25.141Z,101625.27
2018-11-14T16:38:55.074Z,101627.27
2018-11-14T16:41:24.911Z,101623.88
2018-11-14T16:43:54.471Z,101620.16
2018-11-14T16:46:23.966Z,101623.64
2018-11-14T16:48:54.019Z,101617.43
2018-11-14T16:51:24.787Z,101622.05
2018-11-14T16:53:55.049Z,101626.54
2018-11-14T16:56:24.717Z,101626.34
2018-11-14T16:58:54.478Z,101626.44
2018-11-14T17:01:24.753Z,101624.94
2018-11-14T17:03:54.425Z,101626.93
2018-11-14T17:06:24.771Z,101622.97
2018-11-14T17:08:54.450Z,101620.37
2018-11-14T17:11:26.095Z,101617.70
2018-11-14T17:13:55.543Z,101625.89
2018-11-14T17:16:26.427Z,101629.24
2018-11-14T17:18:56.345Z,101624.06
2018-11-14T17:21:25.467Z,101627.91
2018-11-14T17:23:55.645Z,101632.09
2018-11-14T17:26:25.688Z,101623.76
2018-11-14T17:28:55.610Z,101626.92
2018-11-14T17:31:25.875Z,101632.41
2018-11-14T17:33:55.717Z,101627.38
2018-11-14T17:36:25.511Z,101622.28
2018-11-14T17:38:55.106Z,101626.93
2018-11-14T17:41:24.474Z,101628.75
2018-11-14T17:43:53.952Z,101631.91
2018-11-14T17:46:24.149Z,101633.59
2018-11-14T17:48:54.022Z,101634.27
2018-11-14T17:51:23.453Z,101635.08
2018-11-14T17:53:54.600Z,101628.60
2018-11-14T17:56:24.005Z,101634.34
2018-11-14T17:58:54.106Z,101637.05
2018-11-14T18:01:24.496Z,101640.06
2018-11-14T18:03:53.749Z,101644.44
2018-11-14T18:06:24.014Z,101638.46
2018-11-14T18:08:53.529Z,101642.34
2018-11-14T18:11:23.611Z,101646.03
2018-11-14T18:13:52.804Z,101646.38
2018-11-14T18:16:24.242Z,101642.90
2018-11-14T18:18:54.576Z,101648.08
2018-11-14T18:21:24.005Z,101645.75
2018-11-14T18:23:54.797Z,101653.11
2018-11-14T18:26:26.090Z,101646.78
2018-11-14T18:28:55.789Z,101647.27
2018-11-14T18:31:25.312Z,101648.30
2018-11-14T18:33:54.999Z,101648.48
2018-11-14T18:36:25.289Z,101657.51
2018-11-14T18:38:54.778Z,101664.02
2018-11-14T18:41:24.585Z,101655.86
2018-11-14T18:43:53.975Z,101659.68
2018-11-14T18:46:24.231Z,101659.02
2018-11-14T18:48:53.646Z,101667.55
2018-11-14T18:51:23.049Z,101661.56
2018-11-14T18:53:53.466Z,101664.76
2018-11-14T18:56:30.115Z,101656.74
2018-11-14T18:58:59.770Z,101662.27
2018-11-14T19:01:29.278Z,101659.94
2018-11-14T19:03:58.136Z,101668.13
2018-11-14T19:06:27.816Z,101675.48
2018-11-14T19:08:56.661Z,101674.48
2018-11-14T19:11:31.350Z,101674.83
2018-11-14T19:14:00.649Z,101687.16
2018-11-14T19:16:30.249Z,101678.64
2018-11-14T19:18:59.635Z,101680.32
2018-11-14T19:21:28.631Z,101679.84
2018-11-14T19:23:58.026Z,101684.72
2018-11-14T19:26:26.821Z,101676.20
2018-11-14T19:28:55.638Z,101679.36
2018-11-14T19:31:25.226Z,101673.53
2018-11-14T19:33:55.689Z,101675.86
2018-11-14T19:36:25.495Z,101678.19
2018-11-14T19:38:55.260Z,101685.55
2018-11-14T19:41:24.597Z,101682.54
2018-11-14T19:43:55.330Z,101685.53
2018-11-14T19:46:24.910Z,101681.00
2018-11-14T19:48:54.309Z,101680.66
2018-11-14T19:51:24.130Z,101673.30
2018-11-14T19:53:54.647Z,101670.98
2018-11-14T19:56:23.896Z,101674.30
2018-11-14T19:58:54.452Z,101673.47
2018-11-14T20:01:24.985Z,101672.95
2018-11-14T20:03:56.688Z,101683.25
2018-11-14T20:06:26.290Z,101694.13
2018-11-14T20:08:55.635Z,101687.23
2018-11-14T20:11:25.624Z,101680.87
2018-11-14T20:13:57.111Z,101679.39
2018-11-14T20:16:26.623Z,101685.19
2018-11-14T20:18:56.054Z,101686.49
2018-11-14T20:21:25.364Z,101691.80
2018-11-14T20:23:55.478Z,101687.98
2018-11-14T20:26:25.153Z,101690.66
2018-11-14T20:28:55.272Z,101686.62
2018-11-14T20:31:24.939Z,101686.62
2018-11-14T20:33:54.365Z,101690.43
2018-11-14T20:36:24.507Z,101687.77
2018-11-14T20:38:54.510Z,101685.09
2018-11-14T20:41:24.761Z,101685.09
2018-11-14T20:43:55.138Z,101686.58
2018-11-14T20:46:24.823Z,101684.72
2018-11-14T20:48:54.905Z,101685.05
2018-11-14T20:51:24.563Z,101702.89
2018-11-14T20:53:54.966Z,101697.71
2018-11-14T20:56:24.699Z,101701.86
2018-11-14T20:58:55.357Z,101696.69
2018-11-14T21:01:25.458Z,101697.18
2018-11-14T21:03:55.033Z,101689.98
2018-11-14T21:06:24.929Z,101699.47
2018-11-14T21:08:55.383Z,101701.48
2018-11-14T21:11:25.333Z,101702.97
2018-11-14T21:13:56.073Z,101694.28
2018-11-14T21:16:26.369Z,101695.11
2018-11-14T21:18:56.491Z,101691.08
2018-11-14T21:21:25.568Z,101697.59
2018-11-14T21:23:55.496Z,101703.58
2018-11-14T21:26:25.891Z,101699.73
2018-11-14T21:28:56.489Z,101695.72
2018-11-14T21:31:25.453Z,101702.55
2018-11-14T21:33:55.983Z,101693.05
2018-11-14T21:36:26.009Z,101695.53
2018-11-14T21:38:55.590Z,101698.69
2018-11-14T21:41:25.350Z,101703.33
2018-11-14T21:43:55.147Z,101706.77
2018-11-14T21:46:24.691Z,101707.91
2018-11-14T21:48:54.502Z,101715.73
2018-11-14T21:51:24.225Z,101714.36
2018-11-14T21:53:54.351Z,101723.80
2018-11-14T21:56:24.118Z,101717.61
2018-11-14T21:58:54.441Z,101724.73
2018-11-14T22:01:24.528Z,101723.34
2018-11-14T22:03:54.019Z,101733.00
2018-11-14T22:06:24.764Z,101734.63
2018-11-14T22:08:54.696Z,101727.92
2018-11-14T22:11:24.522Z,101727.87
2018-11-14T22:13:54.402Z,101730.53
2018-11-14T22:16:25.050Z,101734.86
2018-11-14T22:18:56.004Z,101731.16
2018-11-14T22:21:25.923Z,101733.47
2018-11-14T22:23:56.301Z,101736.43
2018-11-14T22:26:25.422Z,101743.88
2018-11-14T22:28:55.159Z,101742.03
2018-11-14T22:31:24.861Z,101744.64
2018-11-14T22:33:54.519Z,101739.95
2018-11-14T22:36:25.066Z,101737.78
2018-11-14T22:38:54.907Z,101735.27
2018-11-14T22:41:25.291Z,101737.44
2018-11-14T22:43:54.932Z,101733.93
2018-11-14T22:46:24.478Z,101750.41
2018-11-14T22:48:54.698Z,101754.89
2018-11-14T22:51:24.394Z,101757.06
2018-11-14T22:53:54.609Z,101762.39
2018-11-14T22:56:24.091Z,101756.71
2018-11-14T22:58:55.384Z,101756.22
2018-11-14T23:01:26.059Z,101759.55
2018-11-14T23:03:55.976Z,101756.05
2018-11-14T23:06:26.621Z,101764.83
2018-11-14T23:08:55.634Z,101767.28
2018-11-14T23:11:25.795Z,101782.63
2018-11-14T23:13:56.435Z,101778.63
2018-11-14T23:16:26.923Z,101776.95
2018-11-14T23:18:56.646Z,101769.45
2018-11-14T23:21:25.820Z,101774.08
2018-11-14T23:23:56.036Z,101773.73
2018-11-14T23:26:25.830Z,101771.56
2018-11-14T23:28:55.530Z,101764.27
2018-11-14T23:31:25.051Z,101760.62
2018-11-14T23:33:54.826Z,101759.98
2018-11-14T23:36:24.597Z,101762.65
2018-11-14T23:38:55.026Z,101759.15
2018-11-14T23:41:24.686Z,101761.12
2018-11-14T23:43:55.151Z,101758.74
2018-11-14T23:46:26.467Z,101762.88
2018-11-14T23:48:56.274Z,101763.55
2018-11-14T23:51:25.455Z,101758.57
2018-11-14T23:53:55.933Z,101760.19
2018-11-14T23:56:26.491Z,101768.67
2018-11-14T23:58:57.811Z,101759.70
